sensor_id;sensor_type;location;lat;lon;timestamp;P1;durP1;ratioP1;P2;durP2;ratioP2
78799;SDS011;68148;55.328;86.106;2024-02-21T00:02:25;17.08;;;8.45;;
78799;SDS011;68148;55.328;86.106;2024-02-21T00:04:50;33.65;;;10.20;;
78799;SDS011;68148;55.328;86.106;2024-02-21T00:07:18;33.33;;;11.40;;
78799;SDS011;68148;55.328;86.106;2024-02-21T00:09:44;20.80;;;10.55;;
78799;SDS011;68148;55.328;86.106;2024-02-21T00:12:10;1.65;;;1.40;;
78799;SDS011;68148;55.328;86.106;2024-02-21T00:14:36;22.23;;;11.63;;
78799;SDS011;68148;55.328;86.106;2024-02-21T00:17:02;30.65;;;16.55;;
78799;SDS011;68148;55.328;86.106;2024-02-21T00:19:29;19.75;;;13.43;;
78799;SDS011;68148;55.328;86.106;2024-02-21T00:21:56;16.52;;;11.52;;
78799;SDS011;68148;55.328;86.106;2024-02-21T00:24:22;7.10;;;6.53;;
78799;SDS011;68148;55.328;86.106;2024-02-21T00:26:48;29.42;;;9.32;;
78799;SDS011;68148;55.328;86.106;2024-02-21T00:29:14;20.88;;;8.55;;
78799;SDS011;68148;55.328;86.106;2024-02-21T00:31:40;46.60;;;12.05;;
78799;SDS011;68148;55.328;86.106;2024-02-21T00:34:06;17.33;;;12.25;;
78799;SDS011;68148;55.328;86.106;2024-02-21T00:36:32;13.40;;;12.18;;
78799;SDS011;68148;55.328;86.106;2024-02-21T00:38:58;25.10;;;18.33;;
78799;SDS011;68148;55.328;86.106;2024-02-21T00:41:24;27.00;;;10.77;;
78799;SDS011;68148;55.328;86.106;2024-02-21T00:43:50;51.03;;;19.38;;
78799;SDS011;68148;55.328;86.106;2024-02-21T00:46:16;23.60;;;13.07;;
78799;SDS011;68148;55.328;86.106;2024-02-21T00:48:42;39.97;;;23.80;;
78799;SDS011;68148;55.328;86.106;2024-02-21T00:51:08;31.70;;;17.60;;
78799;SDS011;68148;55.328;86.106;2024-02-21T00:53:34;33.83;;;21.20;;
78799;SDS011;68148;55.328;86.106;2024-02-21T00:56:00;73.18;;;33.15;;
78799;SDS011;68148;55.328;86.106;2024-02-21T00:58:26;34.10;;;24.58;;
78799;SDS011;68148;55.328;86.106;2024-02-21T01:00:52;71.78;;;33.03;;
78799;SDS011;68148;55.328;86.106;2024-02-21T01:03:17;29.65;;;25.40;;
78799;SDS011;68148;55.328;86.106;2024-02-21T01:05:43;57.55;;;27.23;;
78799;SDS011;68148;55.328;86.106;2024-02-21T01:08:09;57.33;;;23.20;;
78799;SDS011;68148;55.328;86.106;2024-02-21T01:10:36;67.57;;;47.13;;
78799;SDS011;68148;55.328;86.106;2024-02-21T01:13:02;36.15;;;24.33;;
78799;SDS011;68148;55.328;86.106;2024-02-21T01:15:28;34.95;;;16.75;;
78799;SDS011;68148;55.328;86.106;2024-02-21T01:17:57;33.83;;;17.88;;
78799;SDS011;68148;55.328;86.106;2024-02-21T01:20:23;45.75;;;22.30;;
78799;SDS011;68148;55.328;86.106;2024-02-21T01:22:49;52.65;;;35.15;;
78799;SDS011;68148;55.328;86.106;2024-02-21T01:25:15;42.05;;;24.30;;
78799;SDS011;68148;55.328;86.106;2024-02-21T01:27:41;59.72;;;29.52;;
78799;SDS011;68148;55.328;86.106;2024-02-21T01:30:07;70.05;;;38.95;;
78799;SDS011;68148;55.328;86.106;2024-02-21T01:32:33;87.40;;;30.92;;
78799;SDS011;68148;55.328;86.106;2024-02-21T01:34:59;54.08;;;33.35;;
78799;SDS011;68148;55.328;86.106;2024-02-21T01:37:28;67.05;;;25.77;;
78799;SDS011;68148;55.328;86.106;2024-02-21T01:39:54;34.30;;;29.55;;
78799;SDS011;68148;55.328;86.106;2024-02-21T01:42:20;43.47;;;22.65;;
78799;SDS011;68148;55.328;86.106;2024-02-21T01:44:46;44.00;;;23.38;;
78799;SDS011;68148;55.328;86.106;2024-02-21T01:47:11;57.15;;;27.52;;
78799;SDS011;68148;55.328;86.106;2024-02-21T01:49:40;37.70;;;21.40;;
78799;SDS011;68148;55.328;86.106;2024-02-21T01:52:07;42.70;;;22.27;;
78799;SDS011;68148;55.328;86.106;2024-02-21T01:54:33;90.45;;;39.55;;
78799;SDS011;68148;55.328;86.106;2024-02-21T01:56:59;29.27;;;21.73;;
78799;SDS011;68148;55.328;86.106;2024-02-21T01:59:26;62.75;;;31.45;;
78799;SDS011;68148;55.328;86.106;2024-02-21T02:01:56;61.60;;;32.03;;
78799;SDS011;68148;55.328;86.106;2024-02-21T02:04:23;40.13;;;22.83;;
78799;SDS011;68148;55.328;86.106;2024-02-21T02:06:50;35.55;;;21.05;;
78799;SDS011;68148;55.328;86.106;2024-02-21T02:09:16;43.35;;;37.30;;
78799;SDS011;68148;55.328;86.106;2024-02-21T02:11:42;110.10;;;35.78;;
78799;SDS011;68148;55.328;86.106;2024-02-21T02:14:09;30.40;;;19.38;;
78799;SDS011;68148;55.328;86.106;2024-02-21T02:16:34;51.67;;;23.42;;
78799;SDS011;68148;55.328;86.106;2024-02-21T02:19:00;99.82;;;47.33;;
78799;SDS011;68148;55.328;86.106;2024-02-21T02:21:29;128.65;;;54.17;;
78799;SDS011;68148;55.328;86.106;2024-02-21T02:23:57;151.20;;;59.33;;
78799;SDS011;68148;55.328;86.106;2024-02-21T02:26:26;100.60;;;45.30;;
78799;SDS011;68148;55.328;86.106;2024-02-21T02:28:52;83.63;;;49.85;;
78799;SDS011;68148;55.328;86.106;2024-02-21T02:31:18;94.28;;;38.47;;
78799;SDS011;68148;55.328;86.106;2024-02-21T02:33:43;76.93;;;38.22;;
78799;SDS011;68148;55.328;86.106;2024-02-21T02:45:00;45.13;;;30.27;;
78799;SDS011;68148;55.328;86.106;2024-02-21T02:47:26;36.67;;;27.15;;
78799;SDS011;68148;55.328;86.106;2024-02-21T02:50:10;34.28;;;10.63;;
78799;SDS011;68148;55.328;86.106;2024-02-21T02:52:36;53.80;;;20.15;;
78799;SDS011;68148;55.328;86.106;2024-02-21T02:55:02;28.80;;;20.58;;
78799;SDS011;68148;55.328;86.106;2024-02-21T02:57:29;59.38;;;34.92;;
78799;SDS011;68148;55.328;86.106;2024-02-21T02:59:55;45.60;;;27.73;;
78799;SDS011;68148;55.328;86.106;2024-02-21T03:02:21;60.00;;;26.25;;
78799;SDS011;68148;55.328;86.106;2024-02-21T03:04:47;37.35;;;20.40;;
78799;SDS011;68148;55.328;86.106;2024-02-21T03:07:14;37.60;;;23.13;;
78799;SDS011;68148;55.328;86.106;2024-02-21T03:09:41;37.03;;;20.70;;
78799;SDS011;68148;55.328;86.106;2024-02-21T03:12:07;36.22;;;17.80;;
78799;SDS011;68148;55.328;86.106;2024-02-21T03:14:33;13.40;;;10.52;;
78799;SDS011;68148;55.328;86.106;2024-02-21T03:17:00;31.30;;;16.17;;
78799;SDS011;68148;55.328;86.106;2024-02-21T03:19:35;10.98;;;5.63;;
78799;SDS011;68148;55.328;86.106;2024-02-21T03:22:01;5.95;;;3.97;;
78799;SDS011;68148;55.328;86.106;2024-02-21T03:24:26;15.98;;;11.20;;
78799;SDS011;68148;55.328;86.106;2024-02-21T03:26:52;11.57;;;7.38;;
78799;SDS011;68148;55.328;86.106;2024-02-21T03:29:18;16.75;;;11.52;;
78799;SDS011;68148;55.328;86.106;2024-02-21T03:31:44;7.63;;;6.90;;
78799;SDS011;68148;55.328;86.106;2024-02-21T03:34:10;25.08;;;9.82;;
78799;SDS011;68148;55.328;86.106;2024-02-21T03:36:36;17.48;;;9.18;;
78799;SDS011;68148;55.328;86.106;2024-02-21T03:39:02;22.42;;;11.52;;
78799;SDS011;68148;55.328;86.106;2024-02-21T03:41:28;17.65;;;8.63;;
78799;SDS011;68148;55.328;86.106;2024-02-21T03:43:54;37.72;;;14.30;;
78799;SDS011;68148;55.328;86.106;2024-02-21T03:46:23;20.92;;;9.35;;
78799;SDS011;68148;55.328;86.106;2024-02-21T03:48:49;21.23;;;10.13;;
78799;SDS011;68148;55.328;86.106;2024-02-21T03:51:15;21.90;;;11.80;;
78799;SDS011;68148;55.328;86.106;2024-02-21T03:53:41;25.65;;;6.60;;
78799;SDS011;68148;55.328;86.106;2024-02-21T03:56:07;15.60;;;4.00;;
78799;SDS011;68148;55.328;86.106;2024-02-21T03:58:43;8.15;;;4.97;;
78799;SDS011;68148;55.328;86.106;2024-02-21T04:01:09;8.93;;;5.20;;
78799;SDS011;68148;55.328;86.106;2024-02-21T04:03:37;15.25;;;8.65;;
78799;SDS011;68148;55.328;86.106;2024-02-21T04:06:06;3.45;;;3.15;;
78799;SDS011;68148;55.328;86.106;2024-02-21T04:08:32;23.65;;;11.95;;
78799;SDS011;68148;55.328;86.106;2024-02-21T04:10:58;16.27;;;10.00;;
78799;SDS011;68148;55.328;86.106;2024-02-21T04:13:26;4.72;;;1.77;;
78799;SDS011;68148;55.328;86.106;2024-02-21T04:15:53;53.13;;;14.48;;
78799;SDS011;68148;55.328;86.106;2024-02-21T04:18:19;18.35;;;10.77;;
78799;SDS011;68148;55.328;86.106;2024-02-21T04:20:45;8.52;;;4.45;;
78799;SDS011;68148;55.328;86.106;2024-02-21T04:23:11;10.40;;;9.35;;
78799;SDS011;68148;55.328;86.106;2024-02-21T04:25:37;16.80;;;7.10;;
78799;SDS011;68148;55.328;86.106;2024-02-21T04:28:04;9.57;;;5.93;;
78799;SDS011;68148;55.328;86.106;2024-02-21T04:30:30;5.40;;;3.47;;
78799;SDS011;68148;55.328;86.106;2024-02-21T04:32:57;19.77;;;9.20;;
78799;SDS011;68148;55.328;86.106;2024-02-21T04:35:23;17.50;;;6.93;;
78799;SDS011;68148;55.328;86.106;2024-02-21T04:37:51;8.38;;;4.55;;
78799;SDS011;68148;55.328;86.106;2024-02-21T04:40:18;4.50;;;2.15;;
78799;SDS011;68148;55.328;86.106;2024-02-21T04:42:44;24.38;;;8.13;;
78799;SDS011;68148;55.328;86.106;2024-02-21T04:45:10;9.25;;;3.08;;
78799;SDS011;68148;55.328;86.106;2024-02-21T04:47:36;16.55;;;5.93;;
78799;SDS011;68148;55.328;86.106;2024-02-21T04:50:02;33.33;;;3.13;;
78799;SDS011;68148;55.328;86.106;2024-02-21T04:52:28;14.73;;;3.60;;
78799;SDS011;68148;55.328;86.106;2024-02-21T04:54:53;29.80;;;5.30;;
78799;SDS011;68148;55.328;86.106;2024-02-21T04:57:19;17.90;;;5.18;;
78799;SDS011;68148;55.328;86.106;2024-02-21T04:59:45;10.32;;;3.03;;
78799;SDS011;68148;55.328;86.106;2024-02-21T05:02:12;7.97;;;2.90;;
78799;SDS011;68148;55.328;86.106;2024-02-21T05:04:37;26.65;;;8.52;;
78799;SDS011;68148;55.328;86.106;2024-02-21T05:07:04;26.50;;;9.73;;
78799;SDS011;68148;55.328;86.106;2024-02-21T05:09:30;32.50;;;11.75;;
78799;SDS011;68148;55.328;86.106;2024-02-21T05:11:56;20.67;;;9.32;;
78799;SDS011;68148;55.328;86.106;2024-02-21T05:14:22;18.50;;;8.52;;
78799;SDS011;68148;55.328;86.106;2024-02-21T05:16:48;14.40;;;6.20;;
78799;SDS011;68148;55.328;86.106;2024-02-21T05:19:14;13.32;;;5.90;;
78799;SDS011;68148;55.328;86.106;2024-02-21T05:21:39;14.50;;;5.15;;
78799;SDS011;68148;55.328;86.106;2024-02-21T05:24:06;3.40;;;3.05;;
78799;SDS011;68148;55.328;86.106;2024-02-21T05:26:34;2.40;;;1.58;;
78799;SDS011;68148;55.328;86.106;2024-02-21T05:29:00;5.18;;;1.60;;
78799;SDS011;68148;55.328;86.106;2024-02-21T05:31:26;14.35;;;5.53;;
78799;SDS011;68148;55.328;86.106;2024-02-21T05:34:07;45.50;;;11.32;;
78799;SDS011;68148;55.328;86.106;2024-02-21T05:36:33;3.13;;;1.52;;
78799;SDS011;68148;55.328;86.106;2024-02-21T05:39:00;13.95;;;5.32;;
78799;SDS011;68148;55.328;86.106;2024-02-21T05:41:26;13.30;;;7.07;;
78799;SDS011;68148;55.328;86.106;2024-02-21T05:43:52;6.60;;;4.88;;
78799;SDS011;68148;55.328;86.106;2024-02-21T05:46:21;31.63;;;12.32;;
78799;SDS011;68148;55.328;86.106;2024-02-21T05:48:46;28.42;;;12.15;;
78799;SDS011;68148;55.328;86.106;2024-02-21T05:51:12;22.05;;;7.68;;
78799;SDS011;68148;55.328;86.106;2024-02-21T05:53:38;36.58;;;8.25;;
78799;SDS011;68148;55.328;86.106;2024-02-21T05:56:04;28.85;;;8.65;;
78799;SDS011;68148;55.328;86.106;2024-02-21T05:58:35;22.80;;;8.98;;
78799;SDS011;68148;55.328;86.106;2024-02-21T06:01:01;19.52;;;7.90;;
78799;SDS011;68148;55.328;86.106;2024-02-21T06:03:28;34.97;;;10.27;;
78799;SDS011;68148;55.328;86.106;2024-02-21T06:06:02;22.02;;;8.25;;
78799;SDS011;68148;55.328;86.106;2024-02-21T06:08:29;11.35;;;6.43;;
78799;SDS011;68148;55.328;86.106;2024-02-21T06:10:55;19.20;;;8.13;;
78799;SDS011;68148;55.328;86.106;2024-02-21T06:13:21;14.52;;;4.78;;
78799;SDS011;68148;55.328;86.106;2024-02-21T06:15:47;16.35;;;8.95;;
78799;SDS011;68148;55.328;86.106;2024-02-21T06:18:13;21.58;;;9.82;;
78799;SDS011;68148;55.328;86.106;2024-02-21T06:20:39;15.55;;;7.72;;
78799;SDS011;68148;55.328;86.106;2024-02-21T06:23:05;20.20;;;14.50;;
78799;SDS011;68148;55.328;86.106;2024-02-21T06:25:32;13.40;;;5.55;;
78799;SDS011;68148;55.328;86.106;2024-02-21T06:27:58;13.90;;;7.82;;
78799;SDS011;68148;55.328;86.106;2024-02-21T06:30:23;6.15;;;4.43;;
78799;SDS011;68148;55.328;86.106;2024-02-21T06:32:49;26.23;;;6.53;;
78799;SDS011;68148;55.328;86.106;2024-02-21T06:35:15;13.00;;;7.03;;
78799;SDS011;68148;55.328;86.106;2024-02-21T06:37:41;13.38;;;7.50;;
78799;SDS011;68148;55.328;86.106;2024-02-21T06:40:07;13.38;;;4.85;;
78799;SDS011;68148;55.328;86.106;2024-02-21T06:42:33;17.42;;;5.47;;
78799;SDS011;68148;55.328;86.106;2024-02-21T06:44:59;8.25;;;4.13;;
78799;SDS011;68148;55.328;86.106;2024-02-21T06:47:25;1.95;;;1.20;;
78799;SDS011;68148;55.328;86.106;2024-02-21T06:49:51;4.05;;;2.97;;
78799;SDS011;68148;55.328;86.106;2024-02-21T06:52:20;8.02;;;3.53;;
78799;SDS011;68148;55.328;86.106;2024-02-21T06:54:46;14.18;;;3.83;;
78799;SDS011;68148;55.328;86.106;2024-02-21T06:57:12;11.23;;;10.05;;
78799;SDS011;68148;55.328;86.106;2024-02-21T06:59:38;12.75;;;5.45;;
78799;SDS011;68148;55.328;86.106;2024-02-21T07:02:04;26.02;;;9.73;;
78799;SDS011;68148;55.328;86.106;2024-02-21T07:04:30;4.95;;;4.53;;
78799;SDS011;68148;55.328;86.106;2024-02-21T07:06:59;16.50;;;7.97;;
78799;SDS011;68148;55.328;86.106;2024-02-21T07:09:27;18.02;;;7.03;;
78799;SDS011;68148;55.328;86.106;2024-02-21T07:11:53;7.18;;;5.05;;
78799;SDS011;68148;55.328;86.106;2024-02-21T07:14:35;23.60;;;9.25;;
78799;SDS011;68148;55.328;86.106;2024-02-21T07:17:03;15.85;;;7.75;;
78799;SDS011;68148;55.328;86.106;2024-02-21T07:19:31;6.40;;;5.95;;
78799;SDS011;68148;55.328;86.106;2024-02-21T07:21:57;16.05;;;6.70;;
78799;SDS011;68148;55.328;86.106;2024-02-21T07:24:23;11.68;;;5.38;;
78799;SDS011;68148;55.328;86.106;2024-02-21T07:26:49;14.07;;;8.38;;
78799;SDS011;68148;55.328;86.106;2024-02-21T07:29:15;4.32;;;3.45;;
78799;SDS011;68148;55.328;86.106;2024-02-21T07:31:48;34.35;;;10.77;;
78799;SDS011;68148;55.328;86.106;2024-02-21T07:34:16;10.02;;;6.15;;
78799;SDS011;68148;55.328;86.106;2024-02-21T07:36:43;15.35;;;6.97;;
78799;SDS011;68148;55.328;86.106;2024-02-21T07:39:09;6.90;;;3.47;;
78799;SDS011;68148;55.328;86.106;2024-02-21T07:41:35;10.38;;;4.43;;
78799;SDS011;68148;55.328;86.106;2024-02-21T07:44:01;18.15;;;6.93;;
78799;SDS011;68148;55.328;86.106;2024-02-21T07:46:28;21.67;;;9.95;;
78799;SDS011;68148;55.328;86.106;2024-02-21T07:48:54;11.38;;;6.28;;
78799;SDS011;68148;55.328;86.106;2024-02-21T07:51:20;9.48;;;5.22;;
78799;SDS011;68148;55.328;86.106;2024-02-21T07:53:54;15.82;;;6.85;;
78799;SDS011;68148;55.328;86.106;2024-02-21T07:57:36;11.55;;;5.68;;
78799;SDS011;68148;55.328;86.106;2024-02-21T08:00:05;10.52;;;5.15;;
78799;SDS011;68148;55.328;86.106;2024-02-21T08:02:31;14.07;;;6.18;;
78799;SDS011;68148;55.328;86.106;2024-02-21T08:04:58;15.75;;;5.60;;
78799;SDS011;68148;55.328;86.106;2024-02-21T08:07:24;17.05;;;7.05;;
78799;SDS011;68148;55.328;86.106;2024-02-21T08:09:50;17.60;;;6.43;;
78799;SDS011;68148;55.328;86.106;2024-02-21T08:12:16;29.45;;;9.00;;
78799;SDS011;68148;55.328;86.106;2024-02-21T08:14:42;7.60;;;3.38;;
78799;SDS011;68148;55.328;86.106;2024-02-21T08:17:08;6.03;;;3.90;;
78799;SDS011;68148;55.328;86.106;2024-02-21T08:19:34;3.17;;;2.08;;
78799;SDS011;68148;55.328;86.106;2024-02-21T08:21:59;7.30;;;4.40;;
78799;SDS011;68148;55.328;86.106;2024-02-21T08:24:25;10.70;;;5.90;;
78799;SDS011;68148;55.328;86.106;2024-02-21T08:26:53;15.52;;;7.15;;
78799;SDS011;68148;55.328;86.106;2024-02-21T08:29:19;7.68;;;2.80;;
78799;SDS011;68148;55.328;86.106;2024-02-21T08:31:44;8.70;;;3.30;;
78799;SDS011;68148;55.328;86.106;2024-02-21T08:34:10;17.08;;;4.95;;
78799;SDS011;68148;55.328;86.106;2024-02-21T08:36:36;7.05;;;3.75;;
78799;SDS011;68148;55.328;86.106;2024-02-21T08:39:08;4.07;;;2.42;;
78799;SDS011;68148;55.328;86.106;2024-02-21T08:41:37;1.73;;;1.17;;
78799;SDS011;68148;55.328;86.106;2024-02-21T08:44:03;5.65;;;2.53;;
78799;SDS011;68148;55.328;86.106;2024-02-21T08:46:29;10.02;;;2.60;;
78799;SDS011;68148;55.328;86.106;2024-02-21T08:48:55;2.17;;;1.25;;
78799;SDS011;68148;55.328;86.106;2024-02-21T08:51:21;12.57;;;0.85;;
78799;SDS011;68148;55.328;86.106;2024-02-21T08:53:47;5.82;;;2.45;;
78799;SDS011;68148;55.328;86.106;2024-02-21T08:56:14;3.33;;;2.30;;
78799;SDS011;68148;55.328;86.106;2024-02-21T08:58:40;2.45;;;2.13;;
78799;SDS011;68148;55.328;86.106;2024-02-21T09:01:06;2.88;;;2.65;;
78799;SDS011;68148;55.328;86.106;2024-02-21T09:03:33;4.07;;;3.78;;
78799;SDS011;68148;55.328;86.106;2024-02-21T09:05:59;0.60;;;0.50;;
78799;SDS011;68148;55.328;86.106;2024-02-21T09:08:26;2.92;;;2.53;;
78799;SDS011;68148;55.328;86.106;2024-02-21T09:10:52;6.30;;;4.30;;
78799;SDS011;68148;55.328;86.106;2024-02-21T09:13:18;2.25;;;1.90;;
78799;SDS011;68148;55.328;86.106;2024-02-21T09:15:47;3.97;;;2.92;;
78799;SDS011;68148;55.328;86.106;2024-02-21T09:18:13;9.35;;;2.15;;
78799;SDS011;68148;55.328;86.106;2024-02-21T09:20:39;7.20;;;3.10;;
78799;SDS011;68148;55.328;86.106;2024-02-21T09:23:08;2.35;;;1.63;;
78799;SDS011;68148;55.328;86.106;2024-02-21T09:25:34;2.20;;;1.33;;
78799;SDS011;68148;55.328;86.106;2024-02-21T09:28:01;3.72;;;3.33;;
78799;SDS011;68148;55.328;86.106;2024-02-21T09:30:27;7.95;;;3.47;;
78799;SDS011;68148;55.328;86.106;2024-02-21T09:32:54;15.00;;;9.85;;
78799;SDS011;68148;55.328;86.106;2024-02-21T09:35:20;4.20;;;3.85;;
78799;SDS011;68148;55.328;86.106;2024-02-21T09:37:49;11.50;;;5.60;;
78799;SDS011;68148;55.328;86.106;2024-02-21T09:40:16;0.73;;;0.55;;
78799;SDS011;68148;55.328;86.106;2024-02-21T09:42:46;28.17;;;3.20;;
78799;SDS011;68148;55.328;86.106;2024-02-21T09:45:20;6.57;;;3.55;;
78799;SDS011;68148;55.328;86.106;2024-02-21T09:48:05;10.48;;;4.75;;
78799;SDS011;68148;55.328;86.106;2024-02-21T09:50:43;7.22;;;4.63;;
78799;SDS011;68148;55.328;86.106;2024-02-21T09:53:09;6.28;;;1.25;;
78799;SDS011;68148;55.328;86.106;2024-02-21T09:55:37;2.40;;;2.20;;
78799;SDS011;68148;55.328;86.106;2024-02-21T09:58:04;11.82;;;3.17;;
78799;SDS011;68148;55.328;86.106;2024-02-21T10:00:30;9.43;;;6.55;;
78799;SDS011;68148;55.328;86.106;2024-02-21T10:02:58;8.18;;;3.22;;
78799;SDS011;68148;55.328;86.106;2024-02-21T10:05:24;5.55;;;3.75;;
78799;SDS011;68148;55.328;86.106;2024-02-21T10:07:50;11.65;;;5.72;;
78799;SDS011;68148;55.328;86.106;2024-02-21T10:10:16;2.85;;;0.93;;
78799;SDS011;68148;55.328;86.106;2024-02-21T10:12:49;3.28;;;2.03;;
78799;SDS011;68148;55.328;86.106;2024-02-21T10:15:21;1.52;;;1.42;;
78799;SDS011;68148;55.328;86.106;2024-02-21T10:17:47;8.50;;;4.13;;
78799;SDS011;68148;55.328;86.106;2024-02-21T10:20:13;9.68;;;3.25;;
78799;SDS011;68148;55.328;86.106;2024-02-21T10:22:39;2.10;;;1.92;;
78799;SDS011;68148;55.328;86.106;2024-02-21T10:25:08;3.17;;;2.90;;
78799;SDS011;68148;55.328;86.106;2024-02-21T10:27:35;1.75;;;1.65;;
78799;SDS011;68148;55.328;86.106;2024-02-21T10:30:02;4.53;;;4.13;;
78799;SDS011;68148;55.328;86.106;2024-02-21T10:32:30;5.88;;;2.72;;
78799;SDS011;68148;55.328;86.106;2024-02-21T10:35:03;2.10;;;1.02;;
78799;SDS011;68148;55.328;86.106;2024-02-21T10:37:29;6.90;;;3.47;;
78799;SDS011;68148;55.328;86.106;2024-02-21T10:39:55;10.50;;;4.63;;
78799;SDS011;68148;55.328;86.106;2024-02-21T10:42:21;7.00;;;4.32;;
78799;SDS011;68148;55.328;86.106;2024-02-21T10:44:50;6.20;;;2.15;;
78799;SDS011;68148;55.328;86.106;2024-02-21T10:47:16;10.38;;;5.40;;
78799;SDS011;68148;55.328;86.106;2024-02-21T10:49:44;7.50;;;6.22;;
78799;SDS011;68148;55.328;86.106;2024-02-21T10:52:28;2.97;;;1.65;;
78799;SDS011;68148;55.328;86.106;2024-02-21T10:55:10;20.88;;;2.72;;
78799;SDS011;68148;55.328;86.106;2024-02-21T10:57:55;9.02;;;3.65;;
78799;SDS011;68148;55.328;86.106;2024-02-21T11:00:22;6.22;;;5.72;;
78799;SDS011;68148;55.328;86.106;2024-02-21T11:02:50;3.53;;;3.20;;
78799;SDS011;68148;55.328;86.106;2024-02-21T11:05:19;6.07;;;3.63;;
78799;SDS011;68148;55.328;86.106;2024-02-21T11:07:45;3.65;;;3.35;;
78799;SDS011;68148;55.328;86.106;2024-02-21T11:10:24;8.77;;;2.35;;
78799;SDS011;68148;55.328;86.106;2024-02-21T11:13:06;7.40;;;5.05;;
78799;SDS011;68148;55.328;86.106;2024-02-21T11:15:35;15.10;;;2.83;;
78799;SDS011;68148;55.328;86.106;2024-02-21T11:18:01;9.13;;;8.15;;
78799;SDS011;68148;55.328;86.106;2024-02-21T11:20:33;1.92;;;1.83;;
78799;SDS011;68148;55.328;86.106;2024-02-21T11:23:02;18.15;;;1.77;;
78799;SDS011;68148;55.328;86.106;2024-02-21T11:25:29;0.88;;;0.85;;
78799;SDS011;68148;55.328;86.106;2024-02-21T11:28:13;2.60;;;2.03;;
78799;SDS011;68148;55.328;86.106;2024-02-21T11:30:53;1.83;;;1.73;;
78799;SDS011;68148;55.328;86.106;2024-02-21T11:33:19;7.88;;;2.67;;
78799;SDS011;68148;55.328;86.106;2024-02-21T11:35:44;8.15;;;3.63;;
78799;SDS011;68148;55.328;86.106;2024-02-21T11:38:11;2.03;;;1.83;;
78799;SDS011;68148;55.328;86.106;2024-02-21T11:40:41;2.40;;;1.77;;
78799;SDS011;68148;55.328;86.106;2024-02-21T11:43:09;0.20;;;0.20;;
78799;SDS011;68148;55.328;86.106;2024-02-21T11:45:35;7.47;;;3.58;;
78799;SDS011;68148;55.328;86.106;2024-02-21T11:48:03;13.93;;;5.25;;
78799;SDS011;68148;55.328;86.106;2024-02-21T11:50:31;0.00;;;0.00;;
78799;SDS011;68148;55.328;86.106;2024-02-21T11:52:57;1.85;;;1.75;;
78799;SDS011;68148;55.328;86.106;2024-02-21T11:55:23;2.22;;;2.13;;
78799;SDS011;68148;55.328;86.106;2024-02-21T11:57:49;8.10;;;3.10;;
78799;SDS011;68148;55.328;86.106;2024-02-21T12:00:16;9.13;;;4.47;;
78799;SDS011;68148;55.328;86.106;2024-02-21T12:02:43;0.85;;;0.80;;
78799;SDS011;68148;55.328;86.106;2024-02-21T12:05:11;3.78;;;2.90;;
78799;SDS011;68148;55.328;86.106;2024-02-21T12:07:48;10.90;;;3.78;;
78799;SDS011;68148;55.328;86.106;2024-02-21T12:10:17;5.22;;;3.08;;
78799;SDS011;68148;55.328;86.106;2024-02-21T12:12:43;17.00;;;7.88;;
78799;SDS011;68148;55.328;86.106;2024-02-21T12:15:12;0.75;;;0.75;;
78799;SDS011;68148;55.328;86.106;2024-02-21T12:17:39;2.75;;;1.58;;
78799;SDS011;68148;55.328;86.106;2024-02-21T12:20:15;11.35;;;8.98;;
78799;SDS011;68148;55.328;86.106;2024-02-21T12:22:44;2.15;;;2.05;;
78799;SDS011;68148;55.328;86.106;2024-02-21T12:25:16;12.68;;;10.10;;
78799;SDS011;68148;55.328;86.106;2024-02-21T12:27:43;3.80;;;3.47;;
78799;SDS011;68148;55.328;86.106;2024-02-21T12:30:10;9.52;;;3.72;;
78799;SDS011;68148;55.328;86.106;2024-02-21T12:32:40;1.40;;;1.30;;
78799;SDS011;68148;55.328;86.106;2024-02-21T12:35:06;2.05;;;1.52;;
78799;SDS011;68148;55.328;86.106;2024-02-21T12:37:45;3.17;;;2.92;;
78799;SDS011;68148;55.328;86.106;2024-02-21T12:40:22;3.70;;;2.08;;
78799;SDS011;68148;55.328;86.106;2024-02-21T12:42:48;6.45;;;5.57;;
78799;SDS011;68148;55.328;86.106;2024-02-21T12:45:14;3.65;;;2.08;;
78799;SDS011;68148;55.328;86.106;2024-02-21T12:47:40;1.05;;;0.65;;
78799;SDS011;68148;55.328;86.106;2024-02-21T12:50:08;0.52;;;0.20;;
78799;SDS011;68148;55.328;86.106;2024-02-21T12:52:34;29.63;;;6.97;;
78799;SDS011;68148;55.328;86.106;2024-02-21T12:55:03;3.80;;;3.42;;
78799;SDS011;68148;55.328;86.106;2024-02-21T12:57:29;4.43;;;2.58;;
78799;SDS011;68148;55.328;86.106;2024-02-21T12:59:55;27.65;;;16.40;;
78799;SDS011;68148;55.328;86.106;2024-02-21T13:02:21;1.27;;;0.85;;
78799;SDS011;68148;55.328;86.106;2024-02-21T13:04:47;4.55;;;4.25;;
78799;SDS011;68148;55.328;86.106;2024-02-21T13:07:20;34.70;;;12.18;;
78799;SDS011;68148;55.328;86.106;2024-02-21T13:09:48;27.52;;;21.27;;
78799;SDS011;68148;55.328;86.106;2024-02-21T13:12:17;2.25;;;1.00;;
78799;SDS011;68148;55.328;86.106;2024-02-21T13:14:43;0.55;;;0.55;;
78799;SDS011;68148;55.328;86.106;2024-02-21T13:17:16;4.45;;;2.90;;
78799;SDS011;68148;55.328;86.106;2024-02-21T13:19:42;1.60;;;1.13;;
78799;SDS011;68148;55.328;86.106;2024-02-21T13:22:09;3.55;;;3.35;;
78799;SDS011;68148;55.328;86.106;2024-02-21T13:24:35;1.08;;;1.08;;
78799;SDS011;68148;55.328;86.106;2024-02-21T13:27:01;2.75;;;1.85;;
78799;SDS011;68148;55.328;86.106;2024-02-21T13:29:27;4.20;;;3.83;;
78799;SDS011;68148;55.328;86.106;2024-02-21T13:32:00;7.95;;;5.07;;
78799;SDS011;68148;55.328;86.106;2024-02-21T13:34:27;4.22;;;3.85;;
78799;SDS011;68148;55.328;86.106;2024-02-21T13:36:53;4.82;;;2.60;;
78799;SDS011;68148;55.328;86.106;2024-02-21T13:39:26;6.90;;;3.83;;
78799;SDS011;68148;55.328;86.106;2024-02-21T13:41:55;2.00;;;1.85;;
78799;SDS011;68148;55.328;86.106;2024-02-21T13:44:21;8.90;;;8.13;;
78799;SDS011;68148;55.328;86.106;2024-02-21T13:46:47;8.32;;;7.57;;
78799;SDS011;68148;55.328;86.106;2024-02-21T13:49:13;18.92;;;8.63;;
78799;SDS011;68148;55.328;86.106;2024-02-21T13:51:38;1.55;;;1.45;;
78799;SDS011;68148;55.328;86.106;2024-02-21T13:54:07;9.45;;;2.78;;
78799;SDS011;68148;55.328;86.106;2024-02-21T13:56:48;20.98;;;9.77;;
78799;SDS011;68148;55.328;86.106;2024-02-21T13:59:15;6.13;;;5.50;;
78799;SDS011;68148;55.328;86.106;2024-02-21T14:01:41;2.47;;;1.85;;
78799;SDS011;68148;55.328;86.106;2024-02-21T14:04:07;1.88;;;1.77;;
78799;SDS011;68148;55.328;86.106;2024-02-21T14:06:33;2.22;;;2.13;;
78799;SDS011;68148;55.328;86.106;2024-02-21T14:09:12;3.00;;;1.52;;
78799;SDS011;68148;55.328;86.106;2024-02-21T14:11:41;3.42;;;1.25;;
78799;SDS011;68148;55.328;86.106;2024-02-21T14:14:10;1.77;;;1.55;;
78799;SDS011;68148;55.328;86.106;2024-02-21T14:16:36;2.25;;;1.50;;
78799;SDS011;68148;55.328;86.106;2024-02-21T14:19:02;5.38;;;5.07;;
78799;SDS011;68148;55.328;86.106;2024-02-21T14:21:28;2.95;;;2.55;;
78799;SDS011;68148;55.328;86.106;2024-02-21T14:23:58;26.52;;;5.15;;
78799;SDS011;68148;55.328;86.106;2024-02-21T14:26:29;7.10;;;4.20;;
78799;SDS011;68148;55.328;86.106;2024-02-21T14:28:58;29.60;;;6.88;;
78799;SDS011;68148;55.328;86.106;2024-02-21T14:31:24;2.80;;;2.60;;
78799;SDS011;68148;55.328;86.106;2024-02-21T14:33:50;5.63;;;2.83;;
78799;SDS011;68148;55.328;86.106;2024-02-21T14:36:16;3.75;;;2.80;;